• Join FlightAware (Why Join?)
  • Login
  • US Flag 
01:45PM EDT


 

Airport Tracker/Info


-or-


 

Live Flight TrackerFlight Track Log ✈ N44NC ✈ 30-Apr-2013 ✈ KJWN - KRIL

Flight Track Log - Related Links

Times and Time Zones

All times are in EDT time to prevent confusion due to time zone crossing. See the N44NC flight status page for this flight to view local times or setup timezone preferences in your user account.

Time Position Orientation Groundspeed Altitude Reporting Facility
EDT Latitude Longitude Course Direction KTS MPH feet Rate Location/Type
07:52PM 36.1667 -86.8833 202° Southwest 137 158 800  Level Nashville TRACON
07:53PM 36.1333 -86.9000 202° Southwest 164 189 2,100 1,620 Climbing Nashville TRACON
07:54PM 36.0833 -86.9333 208° Southwest 186 214 3,900 1,440 Climbing Nashville TRACON
07:55PM 36.0764 -87.0314 265° West 226 260 6,100 1,320 Climbing Memphis Center
07:56PM 36.0931 -87.1128 284° West 226 260 7,400 1,320 Climbing Memphis Center
07:57PM 36.1075 -87.1867 284° West 226 260 8,800 1,380 Climbing Memphis Center
07:58PM 36.1261 -87.2581 288° West 219 252 10,200 1,260 Climbing Memphis Center
07:59PM 36.1464 -87.3267 290° West 219 252 11,400 840 Climbing Memphis Center
08:00PM 36.1669 -87.4003 289° West 225 259 11,900 780 Climbing Memphis Center
08:01PM 36.1875 -87.4742 289° West 230 265 13,000 1,200 Climbing Memphis Center
08:02PM 36.2078 -87.5403 291° West 218 251 14,300 1,020 Climbing Memphis Center
08:03PM 36.2258 -87.5964 292° West 207 238 15,100 720 Climbing Memphis Center
08:04PM 36.2442 -87.6678 288° West 212 244 15,800 840 Climbing Memphis Center
08:05PM 36.2664 -87.7367 292° West 217 250 16,800 900 Climbing Memphis Center
08:06PM 36.2886 -87.8028 293° West 217 250 17,600 720 Climbing Memphis Center
08:07PM 36.3089 -87.8742 289° West 217 250 18,300 420 Climbing Memphis Center
08:08PM 36.3292 -87.9508 288° West 230 265 18,500 480 Climbing Memphis Center
08:09PM 36.3536 -88.0378 289° West 239 275 19,300 840 Climbing Memphis Center
08:10PM 36.3778 -88.1092 293° West 239 275 20,200 720 Climbing Memphis Center
08:11PM 36.4022 -88.1833 292° West 234 269 20,800 540 Climbing Memphis Center
08:12PM 36.4200 -88.2578 287° West 229 264 21,300 540 Climbing Memphis Center
08:13PM 36.4422 -88.3319 290° West 229 264 21,900 600 Climbing Memphis Center
08:14PM 36.4642 -88.4061 290° West 229 264 22,500 600 Climbing Memphis Center
08:15PM 36.4842 -88.4806 288° West 224 258 23,100 540 Climbing Memphis Center
08:16PM 36.5039 -88.5497 290° West 224 258 23,600 420 Climbing Memphis Center
08:17PM 36.5236 -88.6242 288° West 224 258 24,000 300 Climbing Memphis Center
08:18PM 36.5436 -88.7014 288° West 224 258 24,200 60 Climbing Memphis Center
08:19PM 36.5633 -88.7811 287° West 229 264 24,200  Level Memphis Center
08:20PM 36.5872 -88.8658 289° West 245 282 24,300  Climbing Memphis Center
08:21PM 36.6092 -88.9481 288° West 245 282 24,300  Level Memphis Center
08:22PM 36.6308 -89.0150 292° West 250 288 24,300 -180 Level Memphis Center
08:23PM 36.6525 -89.1050 287° West 250 288 24,000 -180 Descending Memphis Center
08:24PM 36.6783 -89.1953 290° West 250 288 24,000  Level Memphis Center
08:25PM 36.7044 -89.2983 288° West 270 311 24,100  Climbing Memphis Center
08:26PM 36.7300 -89.3861 290° West 270 311 24,100  Level Memphis Center
08:27PM 36.7536 -89.4764 288° West 270 311 24,100  Level Memphis Center
08:28PM 36.7750 -89.5642 287° West 270 311 24,100  Level Memphis Center
08:29PM 36.7986 -89.6547 288° West 270 311 24,100  Level Memphis Center
08:30PM 36.8219 -89.7428 288° West 270 311 24,100  Level Memphis Center
08:31PM 36.8453 -89.8306 288° West 270 311 24,100  Level Memphis Center
08:32PM 36.8706 -89.9186 290° West 270 311 24,200  Climbing Memphis Center
08:33PM 36.8939 -90.0042 289° West 265 305 24,200  Level Memphis Center
08:34PM 36.9150 -90.0922 287° West 265 305 24,200  Level Memphis Center
08:35PM 36.9358 -90.1831 286° West 265 305 24,200  Level Memphis Center
08:36PM 36.9589 -90.2711 288° West 265 305 24,200  Level Memphis Center
08:37PM 36.9797 -90.3569 287° West 265 305 24,200 -60 Level Memphis Center
08:39PM 37.0283 -90.5303 289° West 270 311 24,100 -60 Descending Kansas City Center
08:40PM 37.0511 -90.6211 287° West 273 314 24,100  Level Kansas City Center
08:41PM 37.0756 -90.7089 289° West 269 310 24,100  Level Kansas City Center
08:42PM 37.0975 -90.7933 288° West 268 308 24,100  Level Kansas City Center
08:43PM 37.1236 -90.8978 287° West 263 303 24,100  Level Kansas City Center
08:44PM 37.1453 -90.9850 287° West 263 303 24,100  Level Kansas City Center
08:45PM 37.1681 -91.0725 288° West 263 303 24,100  Level Kansas City Center
08:47PM 37.1886 -91.1617 286° West 264 304 24,100  Level Kansas City Center
08:48PM 37.2111 -91.2483 288° West 262 302 24,100  Level Kansas City Center
08:49PM 37.2328 -91.3367 287° West 264 304 24,100  Level Kansas City Center
08:50PM 37.2556 -91.4244 288° West 264 304 24,100  Level Kansas City Center
08:51PM 37.2772 -91.5117 287° West 262 302 24,200  Climbing Kansas City Center
08:52PM 37.2969 -91.5997 286° West 261 300 24,200  Level Kansas City Center
08:53PM 37.3236 -91.7058 288° West 264 304 24,200  Level Kansas City Center
08:54PM 37.3447 -91.7925 287° West 262 302 24,200  Level Kansas City Center
08:55PM 37.3661 -91.8803 287° West 262 302 24,200  Level Kansas City Center
08:56PM 37.3886 -91.9681 288° West 262 302 24,200  Level Kansas City Center
08:57PM 37.4083 -92.0564 286° West 262 302 24,200  Level Kansas City Center
08:58PM 37.4289 -92.1453 286° West 263 303 24,200  Level Kansas City Center
08:59PM 37.4506 -92.2328 287° West 262 302 24,200  Level Kansas City Center
09:00PM 37.4728 -92.3217 288° West 263 303 24,200  Level Kansas City Center
09:01PM 37.4939 -92.4092 287° West 262 302 24,200 -60 Level Kansas City Center
09:02PM 37.5200 -92.5183 287° West 266 306 24,100 -60 Descending Kansas City Center
09:03PM 37.5403 -92.6075 286° West 265 305 24,100  Level Kansas City Center
09:04PM 37.5611 -92.6964 286° West 264 304 24,100  Level Kansas City Center
09:05PM 37.5839 -92.7856 288° West 264 304 24,100  Level Kansas City Center
09:06PM 37.6044 -92.8742 286° West 263 303 24,100  Level Kansas City Center
09:07PM 37.6447 -92.9511 303° West 263 303 24,100  Level Kansas City Center
09:08PM 37.6900 -93.0250 308° West 265 305 24,100  Level Kansas City Center
09:09PM 37.7289 -93.1047 302° West 265 305 24,100  Level Kansas City Center
09:10PM 37.7497 -93.1972 286° West 270 311 24,100  Level Kansas City Center
09:11PM 37.7708 -93.2881 286° West 269 310 24,100  Level Kansas City Center
09:12PM 37.8017 -93.3961 290° West 270 311 24,100  Level Kansas City Center
09:13PM 37.8217 -93.4878 285° West 271 312 24,100  Level Kansas City Center
09:14PM 37.8422 -93.5792 286° West 270 311 24,100  Level Kansas City Center
09:15PM 37.8606 -93.6719 284° West 271 312 24,100  Level Kansas City Center
09:16PM 37.8792 -93.7642 284° West 270 311 24,100  Level Kansas City Center
09:17PM 37.8978 -93.8558 284° West 268 308 24,100  Level Kansas City Center
09:18PM 37.9181 -93.9469 286° West 268 308 24,100  Level Kansas City Center
09:19PM 37.9375 -94.0378 285° West 267 307 24,100  Level Kansas City Center
09:20PM 37.9592 -94.1422 285° West 270 311 24,100  Level Kansas City Center
09:21PM 37.9783 -94.2306 285° West 272 313 24,100  Level Kansas City Center
09:22PM 38.0017 -94.3339 286° West 272 313 24,100  Level Kansas City Center
09:24PM 38.0208 -94.4247 285° West 276 318 24,100  Level Kansas City Center
09:25PM 38.0425 -94.5294 285° West 275 316 24,100  Level Kansas City Center
09:26PM 38.0619 -94.6197 285° West 276 318 24,100  Level Kansas City Center
09:27PM 38.0806 -94.7103 285° West 276 318 24,100  Level Kansas City Center
09:28PM 38.1014 -94.8142 284° West 273 314 24,100  Level Kansas City Center
09:29PM 38.1211 -94.9031 286° West 273 314 24,100  Level Kansas City Center
09:30PM 38.1419 -95.0064 284° West 271 312 24,100  Level Kansas City Center
09:31PM 38.1597 -95.0950 284° West 271 312 24,100  Level Kansas City Center
09:32PM 38.1794 -95.1867 285° West 274 315 24,100  Level Kansas City Center
09:33PM 38.2003 -95.2900 284° West 270 311 24,100  Level Kansas City Center
09:34PM 38.2186 -95.3783 285° West 270 311 24,100  Level Kansas City Center
09:35PM 38.2394 -95.4842 284° West 274 315 24,100  Level Kansas City Center
09:36PM 38.2558 -95.5731 283° West 272 313 24,100  Level Kansas City Center
09:37PM 38.2764 -95.6772 284° West 271 312 24,100  Level Kansas City Center
09:38PM 38.2936 -95.7644 284° West 267 307 24,100  Level Kansas City Center
09:39PM 38.3122 -95.8525 285° West 267 307 24,100  Level Kansas City Center
09:40PM 38.3342 -95.9561 285° West 269 310 24,100  Level Kansas City Center
09:41PM 38.3514 -96.0425 284° West 265 305 24,100  Level Kansas City Center
09:42PM 38.3706 -96.1450 283° West 266 306 24,100  Level Kansas City Center
09:43PM 38.3889 -96.2331 285° West 268 308 24,100  Level Kansas City Center
09:44PM 38.4058 -96.3194 284° West 265 305 24,100  Level Kansas City Center
09:45PM 38.4242 -96.4217 283° West 265 305 24,100  Level Kansas City Center
09:46PM 38.4422 -96.5147 284° West 267 307 24,100  Level Kansas City Center
09:47PM 38.4600 -96.6067 284° West 264 304 24,100  Level Kansas City Center
09:48PM 38.4781 -96.6967 284° West 262 302 24,100  Level Kansas City Center
09:49PM 38.4942 -96.7828 283° West 262 302 24,100  Level Kansas City Center
09:50PM 38.5108 -96.8747 283° West 262 302 24,100  Level Kansas City Center
09:51PM 38.5275 -96.9636 284° West 260 299 24,100  Level Kansas City Center
09:52PM 38.5478 -97.0697 284° West 257 296 24,100  Level Kansas City Center
09:53PM 38.5647 -97.1581 284° West 257 296 24,100  Level Kansas City Center
09:54PM 38.5803 -97.2464 283° West 255 293 24,100  Level Kansas City Center
09:55PM 38.5967 -97.3331 284° West 253 291 24,100  Level Kansas City Center
09:56PM 38.6131 -97.4206 284° West 254 292 24,100  Level Kansas City Center
09:57PM 38.6283 -97.5069 283° West 251 289 24,100  Level Kansas City Center
09:58PM 38.6442 -97.5961 283° West 256 295 24,100  Level Kansas City Center
09:59PM 38.6597 -97.6828 283° West 253 291 24,100  Level Kansas City Center
10:00PM 38.6797 -97.7881 284° West 254 292 24,100  Level Kansas City Center
10:01PM 38.6958 -97.8756 283° West 255 293 24,100  Level Kansas City Center
10:03PM 38.7114 -97.9644 283° West 255 293 24,100  Level Kansas City Center
10:04PM 38.7261 -98.0517 282° West 253 291 24,100  Level Kansas City Center
10:05PM 38.7411 -98.1378 283° West 251 289 24,100  Level Kansas City Center
10:06PM 38.7553 -98.2264 282° West 253 291 24,100  Level Kansas City Center
10:07PM 38.7711 -98.3131 283° West 252 290 24,100  Level Kansas City Center
10:08PM 38.7869 -98.4017 283° West 255 293 24,100  Level Kansas City Center
10:09PM 38.8061 -98.5064 283° West 254 292 24,100  Level Kansas City Center
10:10PM 38.8214 -98.5933 283° West 250 288 24,100  Level Kansas City Center
10:12PM 38.8514 -98.7681 282° West 252 290 24,100  Level Kansas City Center
10:13PM 38.8656 -98.8533 282° West 247 284 24,100  Level Kansas City Center
10:14PM 38.8794 -98.9397 282° West 248 285 24,100  Level Kansas City Center
10:14PM 38.8831 -98.9653 280° West 245 282 24,100  Level Denver Center
10:15PM 38.8972 -99.0486 282° West 248 285 24,100  Level Denver Center
10:16PM 38.9131 -99.1442 282° West 245 282 24,100  Level Denver Center
10:18PM 38.9397 -99.3028 282° West 250 288 24,100  Level Kansas City Center
10:18PM 38.9433 -99.3244 282° West 250 288 24,100  Level Denver Center
10:19PM 38.9572 -99.4064 282° West 248 285 24,100  Level Denver Center
10:20PM 38.9731 -99.5033 282° West 249 287 24,100  Level Denver Center
10:21PM 38.9856 -99.5861 281° West 248 285 24,100  Level Denver Center
10:22PM 38.9994 -99.6689 282° West 249 287 24,100  Level Denver Center
10:23PM 39.0147 -99.7633 282° West 243 280 24,100  Level Denver Center
10:24PM 39.0267 -99.8425 281° West 239 275 24,100  Level Denver Center
10:25PM 39.0292 -99.9350 272° West 232 267 24,100  Level Denver Center
10:26PM 39.0475 -100.0047 289° West 236 272 24,100  Level Denver Center
10:27PM 39.0753 -100.0925 292° West 237 273 24,100  Level Denver Center
10:28PM 39.0892 -100.1706 283° West 234 269 24,100  Level Denver Center
10:29PM 39.1064 -100.2583 284° West 228 262 24,100  Level Denver Center
10:30PM 39.1233 -100.3339 286° West 230 265 24,100  Level Denver Center
10:31PM 39.1350 -100.4097 281° West 227 261 24,100  Level Denver Center
10:32PM 39.1483 -100.5006 281° West 231 266 24,100  Level Denver Center
10:33PM 39.1583 -100.5786 279° West 229 264 24,100  Level Denver Center
10:34PM 39.1697 -100.6681 279° West 227 261 24,100  Level Denver Center
10:36PM 39.1808 -100.7422 281° West 223 257 24,100  Level Denver Center
10:37PM 39.1900 -100.8139 279° West 216 249 24,100  Level Denver Center
10:38PM 39.2033 -100.8969 282° West 212 244 24,100  Level Denver Center
10:39PM 39.2133 -100.9703 280° West 215 247 24,100  Level Denver Center
10:40PM 39.2250 -101.0567 280° West 218 251 24,100  Level Denver Center
10:41PM 39.2347 -101.1303 280° West 218 251 24,100  Level Denver Center
10:42PM 39.2461 -101.2056 281° West 221 254 24,100  Level Denver Center
10:43PM 39.2586 -101.2964 280° West 229 264 24,100  Level Denver Center
10:44PM 39.2700 -101.3736 281° West 230 265 24,100  Level Denver Center
10:45PM 39.2836 -101.4536 282° West 237 273 24,100  Level Denver Center
10:46PM 39.2958 -101.5417 280° West 226 260 24,100  Level Denver Center
10:47PM 39.3061 -101.6194 280° West 227 261 24,100  Level Denver Center
10:48PM 39.3178 -101.7025 280° West 237 273 24,100  Level Denver Center
10:49PM 39.3319 -101.7928 281° West 235 270 24,100  Level Denver Center
10:50PM 39.3422 -101.8719 280° West 235 270 24,100  Level Denver Center
10:51PM 39.3561 -101.9653 281° West 237 273 24,100  Level Denver Center
10:52PM 39.3672 -102.0464 280° West 239 275 24,100  Level Denver Center
10:54PM 39.3917 -102.2194 280° West 234 269 24,100  Level Denver Center
10:55PM 39.4036 -102.3003 281° West 239 275 24,100  Level Denver Center
10:56PM 39.4142 -102.3903 279° West 237 273 24,100  Level Denver Center
10:57PM 39.4250 -102.4744 279° West 236 272 24,100  Level Denver Center
10:58PM 39.4369 -102.5600 280° West 239 275 24,100  Level Denver Center
10:59PM 39.4506 -102.6581 280° West 236 272 24,100  Level Denver Center
11:00PM 39.4617 -102.7542 279° West 231 266 24,100  Level Denver Center
11:01PM 39.4725 -102.8386 279° West 234 269 24,100  Level Denver Center
11:02PM 39.4833 -102.9217 280° West 234 269 24,100  Level Denver Center
11:03PM 39.4956 -103.0042 281° West 231 266 24,100  Level Denver Center
11:04PM 39.5075 -103.0864 281° West 230 265 24,100  Level Denver Center
11:06PM 39.5186 -103.1947 278° West 227 261 24,100  Level Denver Center
11:07PM 39.5219 -103.2767 273° West 227 261 24,100  Level Denver Center
11:08PM 39.5147 -103.3578 263° West 227 261 24,100  Level Denver Center
11:09PM 39.5061 -103.4375 262° West 223 257 24,100  Level Denver Center
11:10PM 39.5075 -103.5181 271° West 221 254 24,100  Level Denver Center
11:11PM 39.5128 -103.5989 275° West 223 257 24,100  Level Denver Center
11:12PM 39.5225 -103.6792 279° West 224 258 24,100  Level Denver Center
11:13PM 39.5256 -103.7639 273° West 232 267 24,100  Level Denver Center
11:14PM 39.5244 -103.8456 269° West 222 255 24,100  Level Denver Center
11:15PM 39.5203 -103.9269 266° West 224 258 24,100  Level Denver Center
11:16PM 39.5175 -104.0067 267° West 222 255 24,100  Level Denver Center
11:17PM 39.5150 -104.0858 268° West 219 252 24,100  Level Denver Center
11:18PM 39.5131 -104.1650 268° West 221 254 24,100  Level Denver Center
11:19PM 39.5106 -104.2425 268° West 213 245 24,100  Level Denver Center
11:20PM 39.5108 -104.3228 270° West 220 253 24,100  Level Denver Center
11:21PM 39.5092 -104.4014 268° West 216 249 24,100  Level Denver Center
11:22PM 39.5078 -104.4825 269° West 221 254 24,100  Level Denver Center
11:24PM 39.5053 -104.6431 269° West 218 251 24,100  Level Denver Center
11:25PM 39.5031 -104.7244 268° West 220 253 24,100  Level Denver Center
11:26PM 39.5022 -104.8058 269° West 222 255 24,100  Level Denver Center
11:27PM 39.5003 -104.8875 268° West 223 257 24,100  Level Denver Center
11:28PM 39.4997 -104.9669 270° West 220 253 24,100  Level Denver Center
11:29PM 39.4975 -105.0608 268° West 222 255 24,100  Level Denver Center
11:30PM 39.4964 -105.1411 269° West 221 254 24,100  Level Denver Center
11:31PM 39.4919 -105.2231 266° West 226 260 24,100  Level Denver Center
11:32PM 39.4886 -105.3039 267° West 224 258 24,100  Level Denver Center
11:33PM 39.4861 -105.3869 268° West 229 264 24,100  Level Denver Center
11:34PM 39.4847 -105.4672 269° West 221 254 24,100  Level Denver Center
11:35PM 39.4844 -105.5467 270° West 217 250 24,100 -60 Level Denver Center
11:36PM 39.4822 -105.6328 268° West 217 250 24,000 -360 Descending Denver Center
11:37PM 39.4797 -105.7067 268° West 205 236 23,400 -960 Descending Denver Center
11:38PM 39.4775 -105.7808 268° West 208 239 22,100 -1,260 Descending Denver Center
11:39PM 39.4747 -105.8519 267° West 210 242 20,900 -1,080 Descending Denver Center
11:40PM 39.4725 -105.9289 268° West 213 245 20,000 -840 Descending Denver Center
11:41PM 39.4711 -106.0044 269° West 209 241 19,200 -840 Descending Denver Center
11:42PM 39.4692 -106.0800 268° West 209 241 18,400 -1,020 Descending Denver Center
11:43PM 39.4644 -106.1619 266° West 230 265 17,200 -840 Descending Denver Center
11:44PM 39.4614 -106.2467 267° West 235 270 16,800  Descending Denver Center
11:45PM 39.4575 -106.3397 267° West 220 253 17,200 180 Climbing Denver Center
11:47PM 39.4569 -106.4183 270° West 218 251 17,200  Level Denver Center
11:48PM 39.4542 -106.4997 267° West 224 258 17,200 -60 Level Denver Center
11:49PM 39.4508 -106.5875 267° West 234 269 17,100 -360 Descending Denver Center
11:51PM 39.4334 -106.7604 270° West  Level FlightAware Approximate
11:55PM 39.5150 -107.0403 276° West 209 241 14,800  Level Denver Center
11:56PM 39.5350 -107.0933 296° West 205 236 14,300 -480 Descending Denver Center
11:57PM 39.5572 -107.1750 289° West 200 230 13,900 -240 Descending Denver Center
11:58PM 39.4840 -107.3707 282° West  Level FlightAware Approximate
11:58PM 39.5372 -107.2414 249° West 187 215 13,900  Level Denver Center
11:59PM 39.4983 -107.4567 282° West  Level FlightAware Approximate
11:59PM 39.5325 -107.3058 265° West 165 190 13,300  Level Denver Center
12:00AM 39.5060 -107.5442 276° West  Level FlightAware Approximate
12:00AM 39.5361 -107.2936 69° East 172 198 10,000  Level Denver Center
12:01AM 39.5286 -107.3750 263° West 146 168 10,900 480 Climbing Denver Center
12:02AM 39.5317 -107.4428 273° West 168 193 11,000 60 Climbing Denver Center